sensor_id;sensor_type;location;lat;lon;timestamp;P1;durP1;ratioP1;P2;durP2;ratioP2
48629;SDS011;34426;52.180;4.462;2023-07-29T00:02:13;8.70;;;2.13;;
48629;SDS011;34426;52.180;4.462;2023-07-29T00:04:41;8.20;;;1.90;;
48629;SDS011;34426;52.180;4.462;2023-07-29T00:07:08;6.70;;;1.80;;
48629;SDS011;34426;52.180;4.462;2023-07-29T00:09:36;5.28;;;1.67;;
48629;SDS011;34426;52.180;4.462;2023-07-29T00:12:02;8.30;;;2.10;;
48629;SDS011;34426;52.180;4.462;2023-07-29T00:14:27;7.50;;;1.70;;
48629;SDS011;34426;52.180;4.462;2023-07-29T00:16:53;8.07;;;1.90;;
48629;SDS011;34426;52.180;4.462;2023-07-29T00:19:19;9.05;;;1.92;;
48629;SDS011;34426;52.180;4.462;2023-07-29T00:21:44;10.05;;;2.40;;
48629;SDS011;34426;52.180;4.462;2023-07-29T00:24:11;12.10;;;2.22;;
48629;SDS011;34426;52.180;4.462;2023-07-29T00:26:36;7.80;;;2.00;;
48629;SDS011;34426;52.180;4.462;2023-07-29T00:29:02;9.43;;;2.20;;
48629;SDS011;34426;52.180;4.462;2023-07-29T00:31:27;11.05;;;2.10;;
48629;SDS011;34426;52.180;4.462;2023-07-29T00:33:53;6.45;;;1.88;;
48629;SDS011;34426;52.180;4.462;2023-07-29T00:36:18;6.72;;;1.83;;
48629;SDS011;34426;52.180;4.462;2023-07-29T00:38:44;8.25;;;2.67;;
48629;SDS011;34426;52.180;4.462;2023-07-29T00:41:11;5.32;;;2.20;;
48629;SDS011;34426;52.180;4.462;2023-07-29T00:43:37;7.95;;;2.03;;
48629;SDS011;34426;52.180;4.462;2023-07-29T00:46:02;7.07;;;2.03;;
48629;SDS011;34426;52.180;4.462;2023-07-29T00:48:28;11.73;;;2.45;;
48629;SDS011;34426;52.180;4.462;2023-07-29T00:50:53;5.22;;;1.85;;
48629;SDS011;34426;52.180;4.462;2023-07-29T00:53:19;9.38;;;2.50;;
48629;SDS011;34426;52.180;4.462;2023-07-29T00:55:45;10.25;;;2.70;;
48629;SDS011;34426;52.180;4.462;2023-07-29T00:58:12;7.55;;;2.72;;
48629;SDS011;34426;52.180;4.462;2023-07-29T01:00:37;9.35;;;2.47;;
48629;SDS011;34426;52.180;4.462;2023-07-29T01:03:03;10.38;;;2.40;;
48629;SDS011;34426;52.180;4.462;2023-07-29T01:05:35;10.75;;;3.05;;
48629;SDS011;34426;52.180;4.462;2023-07-29T01:08:05;10.73;;;2.72;;
48629;SDS011;34426;52.180;4.462;2023-07-29T01:10:39;11.57;;;3.00;;
48629;SDS011;34426;52.180;4.462;2023-07-29T01:13:19;12.40;;;3.25;;
48629;SDS011;34426;52.180;4.462;2023-07-29T01:15:53;5.43;;;2.25;;
48629;SDS011;34426;52.180;4.462;2023-07-29T01:18:22;14.52;;;2.78;;
48629;SDS011;34426;52.180;4.462;2023-07-29T01:20:49;7.57;;;2.30;;
48629;SDS011;34426;52.180;4.462;2023-07-29T01:23:23;8.88;;;2.20;;
48629;SDS011;34426;52.180;4.462;2023-07-29T01:25:48;5.50;;;2.00;;
48629;SDS011;34426;52.180;4.462;2023-07-29T01:28:14;6.70;;;2.05;;
48629;SDS011;34426;52.180;4.462;2023-07-29T01:30:40;8.75;;;2.30;;
48629;SDS011;34426;52.180;4.462;2023-07-29T01:33:09;7.80;;;2.28;;
48629;SDS011;34426;52.180;4.462;2023-07-29T01:35:42;6.05;;;2.30;;
48629;SDS011;34426;52.180;4.462;2023-07-29T01:38:13;6.68;;;2.35;;
48629;SDS011;34426;52.180;4.462;2023-07-29T01:40:43;6.30;;;2.22;;
48629;SDS011;34426;52.180;4.462;2023-07-29T01:43:09;6.93;;;2.42;;
48629;SDS011;34426;52.180;4.462;2023-07-29T01:45:35;8.00;;;2.33;;
48629;SDS011;34426;52.180;4.462;2023-07-29T01:48:01;4.03;;;2.15;;
48629;SDS011;34426;52.180;4.462;2023-07-29T01:50:26;7.47;;;2.55;;
48629;SDS011;34426;52.180;4.462;2023-07-29T01:52:52;10.30;;;2.83;;
48629;SDS011;34426;52.180;4.462;2023-07-29T01:55:17;10.25;;;2.95;;
48629;SDS011;34426;52.180;4.462;2023-07-29T01:57:44;7.30;;;2.28;;
48629;SDS011;34426;52.180;4.462;2023-07-29T02:00:10;7.43;;;2.50;;
48629;SDS011;34426;52.180;4.462;2023-07-29T02:02:36;10.18;;;2.38;;
48629;SDS011;34426;52.180;4.462;2023-07-29T02:05:02;10.40;;;2.53;;
48629;SDS011;34426;52.180;4.462;2023-07-29T02:07:28;6.97;;;2.08;;
48629;SDS011;34426;52.180;4.462;2023-07-29T02:09:53;7.38;;;2.53;;
48629;SDS011;34426;52.180;4.462;2023-07-29T02:12:19;13.32;;;2.40;;
48629;SDS011;34426;52.180;4.462;2023-07-29T02:14:46;5.47;;;2.30;;
48629;SDS011;34426;52.180;4.462;2023-07-29T02:17:11;10.90;;;3.35;;
48629;SDS011;34426;52.180;4.462;2023-07-29T02:19:40;9.52;;;2.45;;
48629;SDS011;34426;52.180;4.462;2023-07-29T02:22:05;7.63;;;2.55;;
48629;SDS011;34426;52.180;4.462;2023-07-29T02:24:31;9.23;;;2.72;;
48629;SDS011;34426;52.180;4.462;2023-07-29T02:26:56;9.35;;;2.50;;
48629;SDS011;34426;52.180;4.462;2023-07-29T02:29:22;7.07;;;2.67;;
48629;SDS011;34426;52.180;4.462;2023-07-29T02:31:49;9.55;;;2.58;;
48629;SDS011;34426;52.180;4.462;2023-07-29T02:34:14;10.07;;;2.80;;
48629;SDS011;34426;52.180;4.462;2023-07-29T02:36:40;11.05;;;2.60;;
48629;SDS011;34426;52.180;4.462;2023-07-29T02:39:05;9.70;;;3.08;;
48629;SDS011;34426;52.180;4.462;2023-07-29T02:41:31;6.85;;;2.30;;
48629;SDS011;34426;52.180;4.462;2023-07-29T02:43:56;9.73;;;2.65;;
48629;SDS011;34426;52.180;4.462;2023-07-29T02:46:22;5.68;;;2.63;;
48629;SDS011;34426;52.180;4.462;2023-07-29T02:48:49;8.45;;;2.95;;
48629;SDS011;34426;52.180;4.462;2023-07-29T02:51:15;8.85;;;2.45;;
48629;SDS011;34426;52.180;4.462;2023-07-29T02:53:41;8.23;;;2.20;;
48629;SDS011;34426;52.180;4.462;2023-07-29T02:56:06;6.95;;;2.90;;
48629;SDS011;34426;52.180;4.462;2023-07-29T02:58:32;10.77;;;3.00;;
48629;SDS011;34426;52.180;4.462;2023-07-29T03:01:00;8.65;;;3.15;;
48629;SDS011;34426;52.180;4.462;2023-07-29T03:03:26;6.43;;;2.88;;
48629;SDS011;34426;52.180;4.462;2023-07-29T03:05:58;6.60;;;2.67;;
48629;SDS011;34426;52.180;4.462;2023-07-29T03:08:24;8.77;;;3.00;;
48629;SDS011;34426;52.180;4.462;2023-07-29T03:10:49;6.70;;;2.85;;
48629;SDS011;34426;52.180;4.462;2023-07-29T03:13:15;7.60;;;3.05;;
48629;SDS011;34426;52.180;4.462;2023-07-29T03:15:48;14.80;;;3.58;;
48629;SDS011;34426;52.180;4.462;2023-07-29T03:18:13;8.82;;;3.10;;
48629;SDS011;34426;52.180;4.462;2023-07-29T03:20:39;5.72;;;2.45;;
48629;SDS011;34426;52.180;4.462;2023-07-29T03:23:06;11.63;;;2.83;;
48629;SDS011;34426;52.180;4.462;2023-07-29T03:25:31;7.68;;;2.30;;
48629;SDS011;34426;52.180;4.462;2023-07-29T03:27:57;18.13;;;3.72;;
48629;SDS011;34426;52.180;4.462;2023-07-29T03:30:23;8.65;;;2.95;;
48629;SDS011;34426;52.180;4.462;2023-07-29T03:32:49;7.82;;;3.05;;
48629;SDS011;34426;52.180;4.462;2023-07-29T03:35:15;10.32;;;3.47;;
48629;SDS011;34426;52.180;4.462;2023-07-29T03:37:40;8.10;;;3.22;;
48629;SDS011;34426;52.180;4.462;2023-07-29T03:40:08;11.65;;;2.97;;
48629;SDS011;34426;52.180;4.462;2023-07-29T03:42:34;6.38;;;2.75;;
48629;SDS011;34426;52.180;4.462;2023-07-29T03:45:00;7.47;;;3.20;;
48629;SDS011;34426;52.180;4.462;2023-07-29T03:47:25;9.07;;;2.50;;
48629;SDS011;34426;52.180;4.462;2023-07-29T03:49:51;9.65;;;2.80;;
48629;SDS011;34426;52.180;4.462;2023-07-29T03:52:16;8.40;;;2.40;;
48629;SDS011;34426;52.180;4.462;2023-07-29T03:54:42;10.80;;;3.08;;
48629;SDS011;34426;52.180;4.462;2023-07-29T03:57:09;14.43;;;2.92;;
48629;SDS011;34426;52.180;4.462;2023-07-29T03:59:34;7.65;;;2.90;;
48629;SDS011;34426;52.180;4.462;2023-07-29T04:02:00;8.60;;;2.85;;
48629;SDS011;34426;52.180;4.462;2023-07-29T04:04:25;8.40;;;3.00;;
48629;SDS011;34426;52.180;4.462;2023-07-29T04:06:51;10.20;;;2.67;;
48629;SDS011;34426;52.180;4.462;2023-07-29T04:09:17;9.60;;;3.28;;
48629;SDS011;34426;52.180;4.462;2023-07-29T04:11:42;12.13;;;3.80;;
48629;SDS011;34426;52.180;4.462;2023-07-29T04:14:09;11.60;;;3.72;;
48629;SDS011;34426;52.180;4.462;2023-07-29T04:16:35;8.70;;;3.35;;
48629;SDS011;34426;52.180;4.462;2023-07-29T04:19:00;8.20;;;3.13;;
48629;SDS011;34426;52.180;4.462;2023-07-29T04:21:26;9.82;;;3.40;;
48629;SDS011;34426;52.180;4.462;2023-07-29T04:23:52;12.30;;;3.10;;
48629;SDS011;34426;52.180;4.462;2023-07-29T04:26:17;11.98;;;3.22;;
48629;SDS011;34426;52.180;4.462;2023-07-29T04:28:43;20.77;;;5.22;;
48629;SDS011;34426;52.180;4.462;2023-07-29T04:31:09;8.90;;;3.15;;
48629;SDS011;34426;52.180;4.462;2023-07-29T04:33:35;13.15;;;3.42;;
48629;SDS011;34426;52.180;4.462;2023-07-29T04:36:01;14.43;;;3.15;;
48629;SDS011;34426;52.180;4.462;2023-07-29T04:38:30;18.02;;;3.78;;
48629;SDS011;34426;52.180;4.462;2023-07-29T04:40:57;12.85;;;3.58;;
48629;SDS011;34426;52.180;4.462;2023-07-29T04:43:23;13.70;;;3.50;;
48629;SDS011;34426;52.180;4.462;2023-07-29T04:45:52;9.95;;;2.75;;
48629;SDS011;34426;52.180;4.462;2023-07-29T04:48:19;17.38;;;3.03;;
48629;SDS011;34426;52.180;4.462;2023-07-29T04:50:44;11.82;;;2.78;;
48629;SDS011;34426;52.180;4.462;2023-07-29T04:53:09;13.80;;;2.75;;
48629;SDS011;34426;52.180;4.462;2023-07-29T04:55:35;9.63;;;2.35;;
48629;SDS011;34426;52.180;4.462;2023-07-29T04:58:05;11.88;;;2.47;;
48629;SDS011;34426;52.180;4.462;2023-07-29T05:00:31;13.18;;;2.70;;
48629;SDS011;34426;52.180;4.462;2023-07-29T05:02:56;13.25;;;2.55;;
48629;SDS011;34426;52.180;4.462;2023-07-29T05:05:23;13.65;;;2.40;;
48629;SDS011;34426;52.180;4.462;2023-07-29T05:07:49;12.80;;;2.80;;
48629;SDS011;34426;52.180;4.462;2023-07-29T05:10:17;12.77;;;2.53;;
48629;SDS011;34426;52.180;4.462;2023-07-29T05:12:42;14.10;;;2.40;;
48629;SDS011;34426;52.180;4.462;2023-07-29T05:15:08;14.82;;;2.53;;
48629;SDS011;34426;52.180;4.462;2023-07-29T05:17:34;19.77;;;2.90;;
48629;SDS011;34426;52.180;4.462;2023-07-29T05:20:00;15.20;;;2.50;;
48629;SDS011;34426;52.180;4.462;2023-07-29T05:22:30;17.67;;;2.67;;
48629;SDS011;34426;52.180;4.462;2023-07-29T05:24:56;13.48;;;2.53;;
48629;SDS011;34426;52.180;4.462;2023-07-29T05:27:21;13.32;;;3.00;;
48629;SDS011;34426;52.180;4.462;2023-07-29T05:29:47;10.05;;;2.40;;
48629;SDS011;34426;52.180;4.462;2023-07-29T05:32:12;11.10;;;2.50;;
48629;SDS011;34426;52.180;4.462;2023-07-29T05:34:38;11.95;;;2.75;;
48629;SDS011;34426;52.180;4.462;2023-07-29T05:37:04;18.52;;;3.17;;
48629;SDS011;34426;52.180;4.462;2023-07-29T05:39:31;11.52;;;2.35;;
48629;SDS011;34426;52.180;4.462;2023-07-29T05:41:56;14.85;;;3.80;;
48629;SDS011;34426;52.180;4.462;2023-07-29T05:44:22;13.35;;;2.20;;
48629;SDS011;34426;52.180;4.462;2023-07-29T05:46:47;13.90;;;2.70;;
48629;SDS011;34426;52.180;4.462;2023-07-29T05:49:13;10.02;;;2.35;;
48629;SDS011;34426;52.180;4.462;2023-07-29T05:51:38;15.02;;;2.72;;
48629;SDS011;34426;52.180;4.462;2023-07-29T05:54:04;15.25;;;3.72;;
48629;SDS011;34426;52.180;4.462;2023-07-29T05:56:31;11.88;;;2.47;;
48629;SDS011;34426;52.180;4.462;2023-07-29T05:58:56;11.60;;;2.30;;
48629;SDS011;34426;52.180;4.462;2023-07-29T06:01:22;11.48;;;2.35;;
48629;SDS011;34426;52.180;4.462;2023-07-29T06:03:47;10.02;;;1.98;;
48629;SDS011;34426;52.180;4.462;2023-07-29T06:06:13;11.88;;;2.10;;
48629;SDS011;34426;52.180;4.462;2023-07-29T06:08:39;9.93;;;2.33;;
48629;SDS011;34426;52.180;4.462;2023-07-29T06:11:04;16.02;;;3.08;;
48629;SDS011;34426;52.180;4.462;2023-07-29T06:13:31;16.13;;;2.47;;
48629;SDS011;34426;52.180;4.462;2023-07-29T06:15:57;9.40;;;2.05;;
48629;SDS011;34426;52.180;4.462;2023-07-29T06:18:23;14.18;;;2.80;;
48629;SDS011;34426;52.180;4.462;2023-07-29T06:20:49;8.38;;;2.10;;
48629;SDS011;34426;52.180;4.462;2023-07-29T06:23:14;7.45;;;2.13;;
48629;SDS011;34426;52.180;4.462;2023-07-29T06:25:40;10.30;;;2.20;;
48629;SDS011;34426;52.180;4.462;2023-07-29T06:28:05;11.23;;;2.20;;
48629;SDS011;34426;52.180;4.462;2023-07-29T06:30:32;11.70;;;2.88;;
48629;SDS011;34426;52.180;4.462;2023-07-29T06:32:58;11.75;;;2.95;;
48629;SDS011;34426;52.180;4.462;2023-07-29T06:35:23;12.15;;;2.72;;
48629;SDS011;34426;52.180;4.462;2023-07-29T06:37:49;12.57;;;1.83;;
48629;SDS011;34426;52.180;4.462;2023-07-29T06:40:15;18.52;;;2.88;;
48629;SDS011;34426;52.180;4.462;2023-07-29T06:42:43;14.57;;;2.25;;
48629;SDS011;34426;52.180;4.462;2023-07-29T06:45:09;9.75;;;2.42;;
48629;SDS011;34426;52.180;4.462;2023-07-29T06:47:36;11.50;;;2.25;;
48629;SDS011;34426;52.180;4.462;2023-07-29T06:50:02;12.55;;;2.55;;
48629;SDS011;34426;52.180;4.462;2023-07-29T06:52:30;15.10;;;1.95;;
48629;SDS011;34426;52.180;4.462;2023-07-29T06:54:56;13.60;;;2.75;;
48629;SDS011;34426;52.180;4.462;2023-07-29T06:57:22;12.77;;;2.35;;
48629;SDS011;34426;52.180;4.462;2023-07-29T06:59:48;16.75;;;4.05;;
48629;SDS011;34426;52.180;4.462;2023-07-29T07:02:13;14.50;;;2.83;;
48629;SDS011;34426;52.180;4.462;2023-07-29T07:04:40;10.88;;;2.50;;
48629;SDS011;34426;52.180;4.462;2023-07-29T07:07:08;12.18;;;2.50;;
48629;SDS011;34426;52.180;4.462;2023-07-29T07:09:33;11.68;;;2.45;;
48629;SDS011;34426;52.180;4.462;2023-07-29T07:12:08;10.45;;;2.30;;
48629;SDS011;34426;52.180;4.462;2023-07-29T07:14:34;12.50;;;2.72;;
48629;SDS011;34426;52.180;4.462;2023-07-29T07:16:59;11.10;;;2.53;;
48629;SDS011;34426;52.180;4.462;2023-07-29T07:19:25;13.40;;;2.17;;
48629;SDS011;34426;52.180;4.462;2023-07-29T07:21:55;8.30;;;1.92;;
48629;SDS011;34426;52.180;4.462;2023-07-29T07:24:24;8.68;;;1.90;;
48629;SDS011;34426;52.180;4.462;2023-07-29T07:26:49;8.65;;;2.40;;
48629;SDS011;34426;52.180;4.462;2023-07-29T07:29:15;8.85;;;1.67;;
48629;SDS011;34426;52.180;4.462;2023-07-29T07:31:41;9.00;;;1.98;;
48629;SDS011;34426;52.180;4.462;2023-07-29T07:34:14;8.20;;;2.40;;
48629;SDS011;34426;52.180;4.462;2023-07-29T07:36:39;8.27;;;2.53;;
48629;SDS011;34426;52.180;4.462;2023-07-29T07:39:06;12.55;;;2.60;;
48629;SDS011;34426;52.180;4.462;2023-07-29T07:41:32;11.23;;;2.15;;
48629;SDS011;34426;52.180;4.462;2023-07-29T07:43:57;15.50;;;3.15;;
48629;SDS011;34426;52.180;4.462;2023-07-29T07:46:25;21.00;;;2.40;;
48629;SDS011;34426;52.180;4.462;2023-07-29T07:48:53;12.13;;;3.33;;
48629;SDS011;34426;52.180;4.462;2023-07-29T07:51:19;14.27;;;2.13;;
48629;SDS011;34426;52.180;4.462;2023-07-29T07:53:45;13.52;;;3.20;;
48629;SDS011;34426;52.180;4.462;2023-07-29T07:56:12;15.40;;;2.78;;
48629;SDS011;34426;52.180;4.462;2023-07-29T07:58:37;15.75;;;2.58;;
48629;SDS011;34426;52.180;4.462;2023-07-29T08:01:05;16.63;;;2.80;;
48629;SDS011;34426;52.180;4.462;2023-07-29T08:03:31;15.75;;;2.55;;
48629;SDS011;34426;52.180;4.462;2023-07-29T08:05:57;15.30;;;2.75;;
48629;SDS011;34426;52.180;4.462;2023-07-29T08:08:23;17.40;;;2.60;;
48629;SDS011;34426;52.180;4.462;2023-07-29T08:10:50;14.82;;;2.80;;
48629;SDS011;34426;52.180;4.462;2023-07-29T08:13:17;8.43;;;2.20;;
48629;SDS011;34426;52.180;4.462;2023-07-29T08:15:45;14.23;;;2.55;;
48629;SDS011;34426;52.180;4.462;2023-07-29T08:18:11;16.08;;;2.80;;
48629;SDS011;34426;52.180;4.462;2023-07-29T08:20:37;9.18;;;2.58;;
48629;SDS011;34426;52.180;4.462;2023-07-29T08:23:02;8.18;;;3.22;;
48629;SDS011;34426;52.180;4.462;2023-07-29T08:25:28;15.13;;;2.95;;
48629;SDS011;34426;52.180;4.462;2023-07-29T08:27:54;10.57;;;2.05;;
48629;SDS011;34426;52.180;4.462;2023-07-29T08:30:21;10.10;;;2.22;;
48629;SDS011;34426;52.180;4.462;2023-07-29T08:32:47;12.80;;;2.47;;
48629;SDS011;34426;52.180;4.462;2023-07-29T08:35:12;7.93;;;2.20;;
48629;SDS011;34426;52.180;4.462;2023-07-29T08:37:38;16.60;;;3.10;;
48629;SDS011;34426;52.180;4.462;2023-07-29T08:40:06;15.55;;;3.00;;
48629;SDS011;34426;52.180;4.462;2023-07-29T08:42:33;6.80;;;1.80;;
48629;SDS011;34426;52.180;4.462;2023-07-29T08:45:00;7.07;;;2.45;;
48629;SDS011;34426;52.180;4.462;2023-07-29T08:47:34;9.18;;;2.03;;
48629;SDS011;34426;52.180;4.462;2023-07-29T08:50:00;11.48;;;2.38;;
48629;SDS011;34426;52.180;4.462;2023-07-29T08:52:26;8.73;;;2.33;;
48629;SDS011;34426;52.180;4.462;2023-07-29T08:54:56;10.20;;;2.35;;
48629;SDS011;34426;52.180;4.462;2023-07-29T08:57:21;15.15;;;2.75;;
48629;SDS011;34426;52.180;4.462;2023-07-29T08:59:48;11.90;;;2.10;;
48629;SDS011;34426;52.180;4.462;2023-07-29T09:02:14;12.90;;;1.90;;
48629;SDS011;34426;52.180;4.462;2023-07-29T09:04:41;9.10;;;2.10;;
48629;SDS011;34426;52.180;4.462;2023-07-29T09:07:07;11.70;;;2.80;;
48629;SDS011;34426;52.180;4.462;2023-07-29T09:09:35;12.98;;;2.58;;
48629;SDS011;34426;52.180;4.462;2023-07-29T09:12:01;12.88;;;2.58;;
48629;SDS011;34426;52.180;4.462;2023-07-29T09:14:27;12.90;;;3.00;;
48629;SDS011;34426;52.180;4.462;2023-07-29T09:16:55;9.45;;;1.98;;
48629;SDS011;34426;52.180;4.462;2023-07-29T09:19:20;9.55;;;1.95;;
48629;SDS011;34426;52.180;4.462;2023-07-29T09:21:51;11.13;;;2.33;;
48629;SDS011;34426;52.180;4.462;2023-07-29T09:24:16;11.45;;;3.30;;
48629;SDS011;34426;52.180;4.462;2023-07-29T09:26:48;13.52;;;2.83;;
48629;SDS011;34426;52.180;4.462;2023-07-29T09:29:14;9.93;;;2.47;;
48629;SDS011;34426;52.180;4.462;2023-07-29T09:31:40;11.60;;;2.20;;
48629;SDS011;34426;52.180;4.462;2023-07-29T09:34:05;11.77;;;2.45;;
48629;SDS011;34426;52.180;4.462;2023-07-29T09:36:31;13.00;;;2.88;;
48629;SDS011;34426;52.180;4.462;2023-07-29T09:38:59;14.60;;;2.60;;
48629;SDS011;34426;52.180;4.462;2023-07-29T09:41:25;12.65;;;2.65;;
48629;SDS011;34426;52.180;4.462;2023-07-29T09:43:55;9.95;;;2.13;;
48629;SDS011;34426;52.180;4.462;2023-07-29T09:46:22;9.68;;;2.15;;
48629;SDS011;34426;52.180;4.462;2023-07-29T09:48:49;10.50;;;2.45;;
48629;SDS011;34426;52.180;4.462;2023-07-29T09:51:17;8.60;;;2.55;;
48629;SDS011;34426;52.180;4.462;2023-07-29T09:53:43;11.82;;;2.28;;
48629;SDS011;34426;52.180;4.462;2023-07-29T09:56:11;7.10;;;2.20;;
48629;SDS011;34426;52.180;4.462;2023-07-29T09:58:37;10.15;;;3.10;;
48629;SDS011;34426;52.180;4.462;2023-07-29T10:01:03;8.60;;;2.17;;
48629;SDS011;34426;52.180;4.462;2023-07-29T10:03:29;10.38;;;2.40;;
48629;SDS011;34426;52.180;4.462;2023-07-29T10:05:59;13.55;;;3.38;;
48629;SDS011;34426;52.180;4.462;2023-07-29T10:08:26;15.30;;;2.75;;
48629;SDS011;34426;52.180;4.462;2023-07-29T10:10:54;11.07;;;2.67;;
48629;SDS011;34426;52.180;4.462;2023-07-29T10:13:21;9.55;;;2.08;;
48629;SDS011;34426;52.180;4.462;2023-07-29T10:15:48;10.02;;;2.45;;
48629;SDS011;34426;52.180;4.462;2023-07-29T10:18:18;15.32;;;3.13;;
48629;SDS011;34426;52.180;4.462;2023-07-29T10:20:45;13.27;;;2.60;;
48629;SDS011;34426;52.180;4.462;2023-07-29T10:23:13;15.20;;;2.40;;
48629;SDS011;34426;52.180;4.462;2023-07-29T10:25:43;14.10;;;3.72;;
48629;SDS011;34426;52.180;4.462;2023-07-29T10:28:11;12.32;;;2.80;;
48629;SDS011;34426;52.180;4.462;2023-07-29T10:30:40;16.60;;;3.55;;
48629;SDS011;34426;52.180;4.462;2023-07-29T10:33:09;14.63;;;2.35;;
48629;SDS011;34426;52.180;4.462;2023-07-29T10:35:37;8.07;;;1.88;;
48629;SDS011;34426;52.180;4.462;2023-07-29T10:38:03;4.40;;;1.20;;
48629;SDS011;34426;52.180;4.462;2023-07-29T10:43:18;4.63;;;1.17;;
48629;SDS011;34426;52.180;4.462;2023-07-29T10:45:50;4.43;;;1.30;;
48629;SDS011;34426;52.180;4.462;2023-07-29T10:51:24;4.03;;;1.10;;
48629;SDS011;34426;52.180;4.462;2023-07-29T10:53:52;5.80;;;1.25;;
48629;SDS011;34426;52.180;4.462;2023-07-29T10:56:23;6.65;;;1.25;;
48629;SDS011;34426;52.180;4.462;2023-07-29T10:58:51;9.15;;;1.38;;
48629;SDS011;34426;52.180;4.462;2023-07-29T11:01:22;4.45;;;1.05;;
48629;SDS011;34426;52.180;4.462;2023-07-29T11:04:00;5.95;;;1.17;;
48629;SDS011;34426;52.180;4.462;2023-07-29T11:09:51;3.42;;;0.77;;
48629;SDS011;34426;52.180;4.462;2023-07-29T11:12:37;6.50;;;0.95;;
48629;SDS011;34426;52.180;4.462;2023-07-29T11:15:11;4.55;;;0.68;;
48629;SDS011;34426;52.180;4.462;2023-07-29T11:17:43;4.40;;;0.85;;
48629;SDS011;34426;52.180;4.462;2023-07-29T11:20:10;8.95;;;1.45;;
48629;SDS011;34426;52.180;4.462;2023-07-29T11:22:36;4.95;;;1.02;;
48629;SDS011;34426;52.180;4.462;2023-07-29T11:25:03;5.28;;;0.95;;
48629;SDS011;34426;52.180;4.462;2023-07-29T11:27:29;7.70;;;0.98;;
48629;SDS011;34426;52.180;4.462;2023-07-29T11:29:56;4.68;;;1.00;;
48629;SDS011;34426;52.180;4.462;2023-07-29T11:32:22;6.22;;;1.02;;
48629;SDS011;34426;52.180;4.462;2023-07-29T11:34:49;3.97;;;1.27;;
48629;SDS011;34426;52.180;4.462;2023-07-29T11:37:15;6.40;;;1.27;;
48629;SDS011;34426;52.180;4.462;2023-07-29T11:39:43;7.20;;;1.45;;
48629;SDS011;34426;52.180;4.462;2023-07-29T11:42:10;5.50;;;1.33;;
48629;SDS011;34426;52.180;4.462;2023-07-29T11:44:36;9.40;;;2.05;;
48629;SDS011;34426;52.180;4.462;2023-07-29T11:47:11;13.98;;;1.65;;
48629;SDS011;34426;52.180;4.462;2023-07-29T11:49:38;11.60;;;1.90;;
48629;SDS011;34426;52.180;4.462;2023-07-29T11:52:07;7.63;;;1.90;;
48629;SDS011;34426;52.180;4.462;2023-07-29T11:54:34;11.95;;;1.58;;
48629;SDS011;34426;52.180;4.462;2023-07-29T11:57:00;6.82;;;1.55;;
48629;SDS011;34426;52.180;4.462;2023-07-29T11:59:29;4.88;;;1.17;;
48629;SDS011;34426;52.180;4.462;2023-07-29T12:01:54;9.23;;;1.10;;
48629;SDS011;34426;52.180;4.462;2023-07-29T12:04:23;10.23;;;1.75;;
48629;SDS011;34426;52.180;4.462;2023-07-29T12:06:49;6.57;;;1.30;;
48629;SDS011;34426;52.180;4.462;2023-07-29T12:09:16;5.47;;;1.23;;
48629;SDS011;34426;52.180;4.462;2023-07-29T12:11:43;9.27;;;1.55;;
48629;SDS011;34426;52.180;4.462;2023-07-29T12:14:09;6.68;;;1.40;;
48629;SDS011;34426;52.180;4.462;2023-07-29T12:16:40;7.85;;;1.73;;
48629;SDS011;34426;52.180;4.462;2023-07-29T12:19:06;9.45;;;1.30;;
48629;SDS011;34426;52.180;4.462;2023-07-29T12:21:31;6.40;;;1.80;;
48629;SDS011;34426;52.180;4.462;2023-07-29T12:23:57;5.15;;;1.00;;
48629;SDS011;34426;52.180;4.462;2023-07-29T12:26:29;7.50;;;1.38;;
48629;SDS011;34426;52.180;4.462;2023-07-29T12:28:55;8.02;;;1.27;;
48629;SDS011;34426;52.180;4.462;2023-07-29T12:31:20;8.25;;;1.30;;
48629;SDS011;34426;52.180;4.462;2023-07-29T12:33:46;5.22;;;1.10;;
48629;SDS011;34426;52.180;4.462;2023-07-29T12:36:11;10.57;;;1.73;;
48629;SDS011;34426;52.180;4.462;2023-07-29T12:38:39;11.50;;;1.90;;
48629;SDS011;34426;52.180;4.462;2023-07-29T12:41:08;9.15;;;1.17;;
48629;SDS011;34426;52.180;4.462;2023-07-29T12:43:40;7.45;;;1.00;;
48629;SDS011;34426;52.180;4.462;2023-07-29T12:46:06;13.07;;;2.00;;
48629;SDS011;34426;52.180;4.462;2023-07-29T12:48:31;8.73;;;1.92;;
48629;SDS011;34426;52.180;4.462;2023-07-29T12:50:57;3.90;;;1.10;;
48629;SDS011;34426;52.180;4.462;2023-07-29T12:53:28;6.65;;;1.10;;
48629;SDS011;34426;52.180;4.462;2023-07-29T12:55:54;4.05;;;0.95;;
48629;SDS011;34426;52.180;4.462;2023-07-29T12:58:19;5.30;;;1.42;;
48629;SDS011;34426;52.180;4.462;2023-07-29T13:00:48;5.05;;;1.25;;
48629;SDS011;34426;52.180;4.462;2023-07-29T13:03:14;4.82;;;1.20;;
48629;SDS011;34426;52.180;4.462;2023-07-29T13:05:40;4.80;;;1.00;;
48629;SDS011;34426;52.180;4.462;2023-07-29T13:08:05;4.82;;;1.08;;
48629;SDS011;34426;52.180;4.462;2023-07-29T13:10:33;5.75;;;1.05;;
48629;SDS011;34426;52.180;4.462;2023-07-29T13:12:59;2.38;;;0.95;;
48629;SDS011;34426;52.180;4.462;2023-07-29T13:15:24;7.38;;;1.33;;
48629;SDS011;34426;52.180;4.462;2023-07-29T13:17:51;4.18;;;1.20;;
48629;SDS011;34426;52.180;4.462;2023-07-29T13:20:17;4.93;;;1.40;;
48629;SDS011;34426;52.180;4.462;2023-07-29T13:22:43;4.53;;;1.30;;
48629;SDS011;34426;52.180;4.462;2023-07-29T13:25:08;4.57;;;1.10;;
48629;SDS011;34426;52.180;4.462;2023-07-29T13:27:34;7.50;;;1.13;;
48629;SDS011;34426;52.180;4.462;2023-07-29T13:29:59;7.45;;;1.30;;
48629;SDS011;34426;52.180;4.462;2023-07-29T13:32:25;6.57;;;1.13;;
48629;SDS011;34426;52.180;4.462;2023-07-29T13:34:52;4.40;;;1.05;;
48629;SDS011;34426;52.180;4.462;2023-07-29T13:37:18;5.95;;;1.38;;
48629;SDS011;34426;52.180;4.462;2023-07-29T13:39:43;5.97;;;1.33;;
48629;SDS011;34426;52.180;4.462;2023-07-29T13:42:09;8.68;;;1.50;;
48629;SDS011;34426;52.180;4.462;2023-07-29T13:44:35;6.47;;;1.10;;
48629;SDS011;34426;52.180;4.462;2023-07-29T13:47:00;5.35;;;1.30;;
48629;SDS011;34426;52.180;4.462;2023-07-29T13:49:26;6.32;;;1.17;;
48629;SDS011;34426;52.180;4.462;2023-07-29T13:51:53;5.70;;;1.25;;
48629;SDS011;34426;52.180;4.462;2023-07-29T13:54:19;9.80;;;1.70;;
48629;SDS011;34426;52.180;4.462;2023-07-29T13:56:45;6.78;;;1.38;;
48629;SDS011;34426;52.180;4.462;2023-07-29T13:59:10;13.45;;;1.65;;
48629;SDS011;34426;52.180;4.462;2023-07-29T14:01:42;4.43;;;1.40;;
48629;SDS011;34426;52.180;4.462;2023-07-29T14:04:08;9.98;;;1.50;;
48629;SDS011;34426;52.180;4.462;2023-07-29T14:06:35;5.80;;;1.33;;
48629;SDS011;34426;52.180;4.462;2023-07-29T14:09:02;6.30;;;1.48;;
48629;SDS011;34426;52.180;4.462;2023-07-29T14:11:28;5.18;;;1.35;;
48629;SDS011;34426;52.180;4.462;2023-07-29T14:13:54;6.43;;;1.50;;
48629;SDS011;34426;52.180;4.462;2023-07-29T14:16:20;6.55;;;1.58;;
48629;SDS011;34426;52.180;4.462;2023-07-29T14:18:48;7.30;;;1.70;;
48629;SDS011;34426;52.180;4.462;2023-07-29T14:21:14;5.80;;;1.60;;
48629;SDS011;34426;52.180;4.462;2023-07-29T14:23:39;6.50;;;1.63;;
48629;SDS011;34426;52.180;4.462;2023-07-29T14:26:06;7.38;;;1.60;;
48629;SDS011;34426;52.180;4.462;2023-07-29T14:28:35;6.28;;;1.77;;
48629;SDS011;34426;52.180;4.462;2023-07-29T14:31:00;5.57;;;1.52;;
48629;SDS011;34426;52.180;4.462;2023-07-29T14:33:28;6.22;;;1.45;;
48629;SDS011;34426;52.180;4.462;2023-07-29T14:35:54;4.68;;;1.50;;
48629;SDS011;34426;52.180;4.462;2023-07-29T14:38:20;7.25;;;1.80;;
48629;SDS011;34426;52.180;4.462;2023-07-29T14:40:47;7.93;;;1.70;;
48629;SDS011;34426;52.180;4.462;2023-07-29T14:43:16;7.40;;;1.38;;
48629;SDS011;34426;52.180;4.462;2023-07-29T14:45:42;6.40;;;1.88;;
48629;SDS011;34426;52.180;4.462;2023-07-29T14:48:08;5.68;;;1.42;;
48629;SDS011;34426;52.180;4.462;2023-07-29T14:50:33;5.93;;;1.95;;